sensor_id;sensor_type;location;lat;lon;timestamp;pressure;altitude;pressure_sealevel;temperature
60731;BMP280;46580;52.114;11.674;2023-03-01T00:01:13;102625.59;;;-0.88
60731;BMP280;46580;52.114;11.674;2023-03-01T00:03:40;102625.56;;;-0.93
60731;BMP280;46580;52.114;11.674;2023-03-01T00:06:06;102621.38;;;-0.96
60731;BMP280;46580;52.114;11.674;2023-03-01T00:08:32;102626.41;;;-0.92
60731;BMP280;46580;52.114;11.674;2023-03-01T00:13:43;102625.59;;;-0.97
60731;BMP280;46580;52.114;11.674;2023-03-01T00:16:30;102617.16;;;-1.16
60731;BMP280;46580;52.114;11.674;2023-03-01T00:18:57;102620.50;;;-1.14
60731;BMP280;46580;52.114;11.674;2023-03-01T00:21:23;102616.31;;;-1.10
60731;BMP280;46580;52.114;11.674;2023-03-01T00:23:49;102618.00;;;-1.13
60731;BMP280;46580;52.114;11.674;2023-03-01T00:26:16;102628.09;;;-1.13
60731;BMP280;46580;52.114;11.674;2023-03-01T00:28:42;102623.06;;;-1.16
60731;BMP280;46580;52.114;11.674;2023-03-01T00:31:15;102618.84;;;-1.24
60731;BMP280;46580;52.114;11.674;2023-03-01T00:33:42;102623.06;;;-1.29
60731;BMP280;46580;52.114;11.674;2023-03-01T00:36:09;102625.59;;;-1.23
60731;BMP280;46580;52.114;11.674;2023-03-01T00:38:36;102626.41;;;-1.24
60731;BMP280;46580;52.114;11.674;2023-03-01T00:41:03;102625.56;;;-1.20
60731;BMP280;46580;52.114;11.674;2023-03-01T00:43:30;102619.69;;;-1.15
60731;BMP280;46580;52.114;11.674;2023-03-01T00:46:00;102608.75;;;-1.15
60731;BMP280;46580;52.114;11.674;2023-03-01T00:48:25;102610.44;;;-1.16
60731;BMP280;46580;52.114;11.674;2023-03-01T00:50:52;102612.09;;;-1.18
60731;BMP280;46580;52.114;11.674;2023-03-01T00:53:17;102610.41;;;-1.12
60731;BMP280;46580;52.114;11.674;2023-03-01T00:55:43;102604.53;;;-1.16
60731;BMP280;46580;52.114;11.674;2023-03-01T00:58:10;102609.59;;;-1.15
60731;BMP280;46580;52.114;11.674;2023-03-01T01:00:36;102605.38;;;-1.10
60731;BMP280;46580;52.114;11.674;2023-03-01T01:03:02;102597.78;;;-1.19
60731;BMP280;46580;52.114;11.674;2023-03-01T01:05:27;102591.03;;;-1.33
60731;BMP280;46580;52.114;11.674;2023-03-01T01:07:53;102601.16;;;-1.43
60731;BMP280;46580;52.114;11.674;2023-03-01T01:10:19;102583.47;;;-1.50
60731;BMP280;46580;52.114;11.674;2023-03-01T01:12:45;102583.47;;;-1.45
60731;BMP280;46580;52.114;11.674;2023-03-01T01:15:12;102580.94;;;-1.39
60731;BMP280;46580;52.114;11.674;2023-03-01T01:17:39;102576.72;;;-1.32
60731;BMP280;46580;52.114;11.674;2023-03-01T01:20:05;102564.13;;;-1.35
60731;BMP280;46580;52.114;11.674;2023-03-01T01:22:32;102570.84;;;-1.50
60731;BMP280;46580;52.114;11.674;2023-03-01T01:24:58;102564.13;;;-1.48
60731;BMP280;46580;52.114;11.674;2023-03-01T01:27:24;102561.56;;;-1.46
60731;BMP280;46580;52.114;11.674;2023-03-01T01:29:50;102559.91;;;-1.44
60731;BMP280;46580;52.114;11.674;2023-03-01T01:32:17;102562.41;;;-1.45
60731;BMP280;46580;52.114;11.674;2023-03-01T01:34:44;102562.41;;;-1.41
60731;BMP280;46580;52.114;11.674;2023-03-01T01:37:09;102553.19;;;-1.42
60731;BMP280;46580;52.114;11.674;2023-03-01T01:39:35;102564.09;;;-1.47
60731;BMP280;46580;52.114;11.674;2023-03-01T01:42:02;102554.84;;;-1.52
60731;BMP280;46580;52.114;11.674;2023-03-01T01:44:29;102547.28;;;-1.55
60731;BMP280;46580;52.114;11.674;2023-03-01T01:47:14;102540.50;;;-1.55
60731;BMP280;46580;52.114;11.674;2023-03-01T01:49:46;102545.59;;;-1.62
60731;BMP280;46580;52.114;11.674;2023-03-01T01:55:07;102542.19;;;-1.60
60731;BMP280;46580;52.114;11.674;2023-03-01T01:57:45;102538.00;;;-1.50
60731;BMP280;46580;52.114;11.674;2023-03-01T02:00:15;102537.16;;;-1.51
60731;BMP280;46580;52.114;11.674;2023-03-01T02:02:41;102532.94;;;-1.53
60731;BMP280;46580;52.114;11.674;2023-03-01T02:05:12;102532.97;;;-1.56
60731;BMP280;46580;52.114;11.674;2023-03-01T02:07:40;102537.16;;;-1.54
60731;BMP280;46580;52.114;11.674;2023-03-01T02:10:07;102538.00;;;-1.59
60731;BMP280;46580;52.114;11.674;2023-03-01T02:12:32;102543.03;;;-1.65
60731;BMP280;46580;52.114;11.674;2023-03-01T02:14:58;102538.84;;;-1.70
60731;BMP280;46580;52.114;11.674;2023-03-01T02:17:25;102530.44;;;-1.71
60731;BMP280;46580;52.114;11.674;2023-03-01T02:22:37;102532.09;;;-1.77
60731;BMP280;46580;52.114;11.674;2023-03-01T02:30:38;102535.47;;;-1.69
60731;BMP280;46580;52.114;11.674;2023-03-01T02:33:25;102533.78;;;-1.79
60731;BMP280;46580;52.114;11.674;2023-03-01T02:35:53;102530.41;;;-1.77
60731;BMP280;46580;52.114;11.674;2023-03-01T02:38:21;102528.72;;;-1.78
60731;BMP280;46580;52.114;11.674;2023-03-01T02:40:49;102530.41;;;-1.78
60731;BMP280;46580;52.114;11.674;2023-03-01T02:43:15;102529.56;;;-1.80
60731;BMP280;46580;52.114;11.674;2023-03-01T02:45:51;102522.00;;;-1.67
60731;BMP280;46580;52.114;11.674;2023-03-01T02:48:18;102525.38;;;-1.77
60731;BMP280;46580;52.114;11.674;2023-03-01T02:53:34;102523.66;;;-1.85
60731;BMP280;46580;52.114;11.674;2023-03-01T02:56:04;102521.16;;;-1.84
60731;BMP280;46580;52.114;11.674;2023-03-01T02:58:29;102516.94;;;-1.85
60731;BMP280;46580;52.114;11.674;2023-03-01T03:00:55;102516.09;;;-1.89
60731;BMP280;46580;52.114;11.674;2023-03-01T03:03:21;102511.88;;;-1.86
60731;BMP280;46580;52.114;11.674;2023-03-01T03:05:48;102511.06;;;-1.84
60731;BMP280;46580;52.114;11.674;2023-03-01T03:08:14;102501.78;;;-1.93
60731;BMP280;46580;52.114;11.674;2023-03-01T03:10:42;102513.50;;;-2.08
60731;BMP280;46580;52.114;11.674;2023-03-01T03:13:13;102511.03;;;-1.92
60731;BMP280;46580;52.114;11.674;2023-03-01T03:15:42;102516.91;;;-1.98
60731;BMP280;46580;52.114;11.674;2023-03-01T03:18:10;102516.91;;;-1.93
60731;BMP280;46580;52.114;11.674;2023-03-01T03:20:39;102524.50;;;-1.92
60731;BMP280;46580;52.114;11.674;2023-03-01T03:23:05;102526.19;;;-1.84
60731;BMP280;46580;52.114;11.674;2023-03-01T03:25:31;102527.84;;;-1.88
60731;BMP280;46580;52.114;11.674;2023-03-01T03:27:57;102525.31;;;-1.94
60731;BMP280;46580;52.114;11.674;2023-03-01T03:30:26;102534.59;;;-1.96
60731;BMP280;46580;52.114;11.674;2023-03-01T03:32:52;102522.81;;;-2.03
60731;BMP280;46580;52.114;11.674;2023-03-01T03:35:24;102526.97;;;-2.08
60731;BMP280;46580;52.114;11.674;2023-03-01T03:37:52;102537.88;;;-2.15
60731;BMP280;46580;52.114;11.674;2023-03-01T03:40:35;102529.44;;;-2.28
60731;BMP280;46580;52.114;11.674;2023-03-01T03:43:07;102527.75;;;-2.28
60731;BMP280;46580;52.114;11.674;2023-03-01T03:45:35;102521.88;;;-2.27
60731;BMP280;46580;52.114;11.674;2023-03-01T03:48:01;102521.88;;;-2.27
60731;BMP280;46580;52.114;11.674;2023-03-01T03:50:26;102518.50;;;-2.29
60731;BMP280;46580;52.114;11.674;2023-03-01T03:52:52;102512.59;;;-2.35
60731;BMP280;46580;52.114;11.674;2023-03-01T03:55:18;102506.72;;;-2.34
60731;BMP280;46580;52.114;11.674;2023-03-01T03:57:45;102513.44;;;-2.45
60731;BMP280;46580;52.114;11.674;2023-03-01T04:00:18;102515.91;;;-2.52
60731;BMP280;46580;52.114;11.674;2023-03-01T04:02:44;102524.28;;;-2.60
60731;BMP280;46580;52.114;11.674;2023-03-01T04:05:13;102523.38;;;-2.68
60731;BMP280;46580;52.114;11.674;2023-03-01T04:07:40;102521.66;;;-2.75
60731;BMP280;46580;52.114;11.674;2023-03-01T04:10:09;102526.72;;;-2.78
60731;BMP280;46580;52.114;11.674;2023-03-01T04:12:36;102529.22;;;-2.75
60731;BMP280;46580;52.114;11.674;2023-03-01T04:15:03;102536.81;;;-2.74
60731;BMP280;46580;52.114;11.674;2023-03-01T04:17:39;102533.47;;;-2.67
60731;BMP280;46580;52.114;11.674;2023-03-01T04:20:05;102519.16;;;-2.78
60731;BMP280;46580;52.114;11.674;2023-03-01T04:22:31;102516.59;;;-2.85
60731;BMP280;46580;52.114;11.674;2023-03-01T04:24:58;102518.28;;;-2.84
60731;BMP280;46580;52.114;11.674;2023-03-01T04:27:27;102515.78;;;-2.80
60731;BMP280;46580;52.114;11.674;2023-03-01T04:29:53;102512.41;;;-2.82
60731;BMP280;46580;52.114;11.674;2023-03-01T04:32:19;102505.69;;;-2.80
60731;BMP280;46580;52.114;11.674;2023-03-01T04:34:46;102517.47;;;-2.79
60731;BMP280;46580;52.114;11.674;2023-03-01T04:37:12;102513.28;;;-2.78
60731;BMP280;46580;52.114;11.674;2023-03-01T04:39:37;102519.16;;;-2.75
60731;BMP280;46580;52.114;11.674;2023-03-01T04:42:12;102510.72;;;-2.84
60731;BMP280;46580;52.114;11.674;2023-03-01T04:44:40;102511.53;;;-2.87
60731;BMP280;46580;52.114;11.674;2023-03-01T04:47:06;102514.09;;;-2.84
60731;BMP280;46580;52.114;11.674;2023-03-01T04:49:32;102509.09;;;-2.69
60731;BMP280;46580;52.114;11.674;2023-03-01T04:51:58;102505.72;;;-2.74
60731;BMP280;46580;52.114;11.674;2023-03-01T04:54:27;102512.44;;;-2.78
60731;BMP280;46580;52.114;11.674;2023-03-01T04:56:54;102507.38;;;-2.82
60731;BMP280;46580;52.114;11.674;2023-03-01T04:59:19;102506.50;;;-2.91
60731;BMP280;46580;52.114;11.674;2023-03-01T05:01:48;102509.00;;;-2.93
60731;BMP280;46580;52.114;11.674;2023-03-01T05:04:13;102511.50;;;-2.93
60731;BMP280;46580;52.114;11.674;2023-03-01T05:06:40;102507.31;;;-2.97
60731;BMP280;46580;52.114;11.674;2023-03-01T05:09:06;102509.00;;;-2.93
60731;BMP280;46580;52.114;11.674;2023-03-01T05:11:32;102511.53;;;-2.91
60731;BMP280;46580;52.114;11.674;2023-03-01T05:14:01;102502.31;;;-2.86
60731;BMP280;46580;52.114;11.674;2023-03-01T05:16:28;102499.00;;;-2.78
60731;BMP280;46580;52.114;11.674;2023-03-01T05:18:55;102499.84;;;-2.75
60731;BMP280;46580;52.114;11.674;2023-03-01T05:21:22;102498.22;;;-2.70
60731;BMP280;46580;52.114;11.674;2023-03-01T05:23:48;102499.00;;;-2.78
60731;BMP280;46580;52.114;11.674;2023-03-01T05:26:14;102514.94;;;-2.80
60731;BMP280;46580;52.114;11.674;2023-03-01T05:28:40;102500.72;;;-2.68
60731;BMP280;46580;52.114;11.674;2023-03-01T05:31:07;102502.41;;;-2.70
60731;BMP280;46580;52.114;11.674;2023-03-01T05:33:40;102504.03;;;-2.75
60731;BMP280;46580;52.114;11.674;2023-03-01T05:36:07;102502.31;;;-2.85
60731;BMP280;46580;52.114;11.674;2023-03-01T05:38:35;102496.41;;;-2.93
60731;BMP280;46580;52.114;11.674;2023-03-01T05:41:00;102494.72;;;-2.94
60731;BMP280;46580;52.114;11.674;2023-03-01T05:43:25;102492.19;;;-2.97
60731;BMP280;46580;52.114;11.674;2023-03-01T05:45:51;102493.81;;;-3.04
60731;BMP280;46580;52.114;11.674;2023-03-01T05:48:17;102495.56;;;-2.92
60731;BMP280;46580;52.114;11.674;2023-03-01T05:50:45;102491.38;;;-2.93
60731;BMP280;46580;52.114;11.674;2023-03-01T05:53:14;102481.25;;;-3.00
60731;BMP280;46580;52.114;11.674;2023-03-01T05:55:41;102482.06;;;-3.05
60731;BMP280;46580;52.114;11.674;2023-03-01T05:58:10;102483.81;;;-2.90
60731;BMP280;46580;52.114;11.674;2023-03-01T06:00:37;102490.50;;;-2.99
60731;BMP280;46580;52.114;11.674;2023-03-01T06:03:03;102487.09;;;-3.02
60731;BMP280;46580;52.114;11.674;2023-03-01T06:05:30;102492.22;;;-2.91
60731;BMP280;46580;52.114;11.674;2023-03-01T06:07:59;102497.25;;;-2.91
60731;BMP280;46580;52.114;11.674;2023-03-01T06:10:26;102490.53;;;-2.92
60731;BMP280;46580;52.114;11.674;2023-03-01T06:12:53;102485.44;;;-3.00
60731;BMP280;46580;52.114;11.674;2023-03-01T06:15:19;102492.13;;;-3.02
60731;BMP280;46580;52.114;11.674;2023-03-01T06:17:46;102496.34;;;-3.00
60731;BMP280;46580;52.114;11.674;2023-03-01T06:20:17;102487.97;;;-2.96
60731;BMP280;46580;52.114;11.674;2023-03-01T06:22:43;102489.66;;;-2.98
60731;BMP280;46580;52.114;11.674;2023-03-01T06:25:10;102490.50;;;-2.97
60731;BMP280;46580;52.114;11.674;2023-03-01T06:27:37;102489.69;;;-2.91
60731;BMP280;46580;52.114;11.674;2023-03-01T06:30:04;102491.38;;;-2.87
60731;BMP280;46580;52.114;11.674;2023-03-01T06:32:29;102484.63;;;-2.97
60731;BMP280;46580;52.114;11.674;2023-03-01T06:34:56;102498.03;;;-2.96
60731;BMP280;46580;52.114;11.674;2023-03-01T06:37:23;102495.53;;;-2.97
60731;BMP280;46580;52.114;11.674;2023-03-01T06:39:50;102495.53;;;-2.95
60731;BMP280;46580;52.114;11.674;2023-03-01T06:42:16;102491.41;;;-2.85
60731;BMP280;46580;52.114;11.674;2023-03-01T06:44:43;102488.91;;;-2.79
60731;BMP280;46580;52.114;11.674;2023-03-01T06:47:09;102487.22;;;-2.76
60731;BMP280;46580;52.114;11.674;2023-03-01T06:49:36;102483.91;;;-2.69
60731;BMP280;46580;52.114;11.674;2023-03-01T06:52:01;102494.03;;;-2.60
60731;BMP280;46580;52.114;11.674;2023-03-01T06:54:27;102484.00;;;-2.52
60731;BMP280;46580;52.114;11.674;2023-03-01T06:56:53;102486.53;;;-2.46
60731;BMP280;46580;52.114;11.674;2023-03-01T06:59:18;102479.81;;;-2.45
60731;BMP280;46580;52.114;11.674;2023-03-01T07:01:44;102474.78;;;-2.38
60731;BMP280;46580;52.114;11.674;2023-03-01T07:04:10;102475.66;;;-2.27
60731;BMP280;46580;52.114;11.674;2023-03-01T07:06:36;102478.19;;;-2.20
60731;BMP280;46580;52.114;11.674;2023-03-01T07:09:02;102470.66;;;-2.16
60731;BMP280;46580;52.114;11.674;2023-03-01T07:11:28;102478.25;;;-1.79
60731;BMP280;46580;52.114;11.674;2023-03-01T07:13:54;102478.25;;;-1.72
60731;BMP280;46580;52.114;11.674;2023-03-01T07:16:21;102473.19;;;-1.67
60731;BMP280;46580;52.114;11.674;2023-03-01T07:18:46;102473.19;;;-1.60
60731;BMP280;46580;52.114;11.674;2023-03-01T07:21:12;102461.44;;;-1.57
60731;BMP280;46580;52.114;11.674;2023-03-01T07:23:38;102462.25;;;-1.52
60731;BMP280;46580;52.114;11.674;2023-03-01T07:26:04;102461.41;;;-1.39
60731;BMP280;46580;52.114;11.674;2023-03-01T07:28:29;102462.22;;;-1.27
60731;BMP280;46580;52.114;11.674;2023-03-01T07:31:01;102463.91;;;-1.17
60731;BMP280;46580;52.114;11.674;2023-03-01T07:33:26;102456.22;;;-0.91
60731;BMP280;46580;52.114;11.674;2023-03-01T07:36:03;102459.56;;;-0.76
60731;BMP280;46580;52.114;11.674;2023-03-01T07:38:29;102452.75;;;-0.65
60731;BMP280;46580;52.114;11.674;2023-03-01T07:41:00;102458.66;;;-0.65
60731;BMP280;46580;52.114;11.674;2023-03-01T07:43:27;102454.38;;;-0.48
60731;BMP280;46580;52.114;11.674;2023-03-01T07:45:52;102457.72;;;-0.43
60731;BMP280;46580;52.114;11.674;2023-03-01T07:48:18;102457.72;;;-0.43
60731;BMP280;46580;52.114;11.674;2023-03-01T07:50:43;102461.84;;;-0.29
60731;BMP280;46580;52.114;11.674;2023-03-01T07:53:10;102456.72;;;-0.19
60731;BMP280;46580;52.114;11.674;2023-03-01T07:55:36;102466.75;;;-0.04
60731;BMP280;46580;52.114;11.674;2023-03-01T07:58:02;102463.31;;;0.05
60731;BMP280;46580;52.114;11.674;2023-03-01T08:00:27;102470.03;;;0.12
60731;BMP280;46580;52.114;11.674;2023-03-01T08:02:54;102468.13;;;0.39
60731;BMP280;46580;52.114;11.674;2023-03-01T08:05:19;102464.66;;;0.47
60731;BMP280;46580;52.114;11.674;2023-03-01T08:07:44;102459.44;;;0.62
60731;BMP280;46580;52.114;11.674;2023-03-01T08:10:10;102462.94;;;0.48
60731;BMP280;46580;52.114;11.674;2023-03-01T08:12:35;102457.88;;;0.52
60731;BMP280;46580;52.114;11.674;2023-03-01T08:15:02;102457.75;;;0.62
60731;BMP280;46580;52.114;11.674;2023-03-01T08:17:28;102461.91;;;0.69
60731;BMP280;46580;52.114;11.674;2023-03-01T08:19:54;102464.50;;;0.65
60731;BMP280;46580;52.114;11.674;2023-03-01T08:22:20;102467.81;;;0.71
60731;BMP280;46580;52.114;11.674;2023-03-01T08:24:46;102470.16;;;0.90
60731;BMP280;46580;52.114;11.674;2023-03-01T08:27:12;102463.25;;;1.02
60731;BMP280;46580;52.114;11.674;2023-03-01T08:29:38;102457.09;;;1.22
60731;BMP280;46580;52.114;11.674;2023-03-01T08:32:04;102461.66;;;1.63
60731;BMP280;46580;52.114;11.674;2023-03-01T08:34:30;102460.03;;;1.56
60731;BMP280;46580;52.114;11.674;2023-03-01T08:36:56;102457.22;;;1.78
60731;BMP280;46580;52.114;11.674;2023-03-01T08:39:22;102454.56;;;1.85
60731;BMP280;46580;52.114;11.674;2023-03-01T08:41:48;102460.47;;;1.87
60731;BMP280;46580;52.114;11.674;2023-03-01T08:44:14;102462.91;;;1.93
60731;BMP280;46580;52.114;11.674;2023-03-01T08:46:42;102456.91;;;1.97
60731;BMP280;46580;52.114;11.674;2023-03-01T08:49:11;102459.03;;;2.23
60731;BMP280;46580;52.114;11.674;2023-03-01T08:51:37;102448.75;;;2.32
60731;BMP280;46580;52.114;11.674;2023-03-01T08:54:04;102453.94;;;2.26
60731;BMP280;46580;52.114;11.674;2023-03-01T08:56:30;102443.16;;;2.10
60731;BMP280;46580;52.114;11.674;2023-03-01T08:58:55;102442.72;;;2.38
60731;BMP280;46580;52.114;11.674;2023-03-01T09:01:21;102443.88;;;2.68
60731;BMP280;46580;52.114;11.674;2023-03-01T09:03:46;102444.53;;;2.77
60731;BMP280;46580;52.114;11.674;2023-03-01T09:06:12;102442.47;;;2.96
60731;BMP280;46580;52.114;11.674;2023-03-01T09:08:40;102434.59;;;3.10
60731;BMP280;46580;52.114;11.674;2023-03-01T09:11:10;102436.09;;;3.19
60731;BMP280;46580;52.114;11.674;2023-03-01T09:13:36;102430.53;;;3.43
60731;BMP280;46580;52.114;11.674;2023-03-01T09:16:04;102433.34;;;3.30
60731;BMP280;46580;52.114;11.674;2023-03-01T09:18:30;102436.09;;;3.58
60731;BMP280;46580;52.114;11.674;2023-03-01T09:21:02;102431.78;;;3.63
60731;BMP280;46580;52.114;11.674;2023-03-01T09:23:32;102440.97;;;3.70
60731;BMP280;46580;52.114;11.674;2023-03-01T09:25:58;102434.56;;;3.89
60731;BMP280;46580;52.114;11.674;2023-03-01T09:28:24;102426.94;;;3.88
60731;BMP280;46580;52.114;11.674;2023-03-01T09:30:50;102433.13;;;4.12
60731;BMP280;46580;52.114;11.674;2023-03-01T09:33:16;102428.69;;;4.20
60731;BMP280;46580;52.114;11.674;2023-03-01T09:35:41;102427.47;;;4.36
60731;BMP280;46580;52.114;11.674;2023-03-01T09:38:11;102417.91;;;4.44
60731;BMP280;46580;52.114;11.674;2023-03-01T09:40:42;102418.25;;;4.63
60731;BMP280;46580;52.114;11.674;2023-03-01T09:43:15;102424.09;;;4.66
60731;BMP280;46580;52.114;11.674;2023-03-01T09:45:45;102424.88;;;4.70
60731;BMP280;46580;52.114;11.674;2023-03-01T09:48:16;102426.53;;;4.71
60731;BMP280;46580;52.114;11.674;2023-03-01T09:50:44;102429.50;;;4.86
60731;BMP280;46580;52.114;11.674;2023-03-01T09:53:23;102422.03;;;5.10
60731;BMP280;46580;52.114;11.674;2023-03-01T10:00:56;102428.25;;;5.31
60731;BMP280;46580;52.114;11.674;2023-03-01T10:03:34;102425.78;;;5.27
60731;BMP280;46580;52.114;11.674;2023-03-01T10:06:11;102428.84;;;5.39
60731;BMP280;46580;52.114;11.674;2023-03-01T10:08:42;102414.66;;;5.57
60731;BMP280;46580;52.114;11.674;2023-03-01T10:11:30;102423.91;;;5.61
60731;BMP280;46580;52.114;11.674;2023-03-01T10:16:54;102425.66;;;5.59
60731;BMP280;46580;52.114;11.674;2023-03-01T10:19:28;102419.81;;;5.56
60731;BMP280;46580;52.114;11.674;2023-03-01T10:21:57;102422.22;;;5.60
60731;BMP280;46580;52.114;11.674;2023-03-01T10:24:28;102420.31;;;5.68
60731;BMP280;46580;52.114;11.674;2023-03-01T10:27:01;102412.66;;;5.68
60731;BMP280;46580;52.114;11.674;2023-03-01T10:29:44;102409.63;;;5.83
60731;BMP280;46580;52.114;11.674;2023-03-01T10:32:12;102402.38;;;5.96
60731;BMP280;46580;52.114;11.674;2023-03-01T10:34:38;102415.00;;;5.46
60731;BMP280;46580;52.114;11.674;2023-03-01T10:37:15;102398.47;;;5.58
60731;BMP280;46580;52.114;11.674;2023-03-01T10:40:01;102399.50;;;5.80
60731;BMP280;46580;52.114;11.674;2023-03-01T10:42:35;102395.19;;;5.82
60731;BMP280;46580;52.114;11.674;2023-03-01T10:48:22;102391.47;;;6.17
60731;BMP280;46580;52.114;11.674;2023-03-01T10:53:41;102385.38;;;5.95
60731;BMP280;46580;52.114;11.674;2023-03-01T10:56:12;102380.44;;;5.90
60731;BMP280;46580;52.114;11.674;2023-03-01T10:58:40;102380.22;;;5.97
60731;BMP280;46580;52.114;11.674;2023-03-01T11:01:24;102371.75;;;6.20
60731;BMP280;46580;52.114;11.674;2023-03-01T11:06:33;102371.34;;;6.56
60731;BMP280;46580;52.114;11.674;2023-03-01T11:11:38;102357.66;;;6.81
60731;BMP280;46580;52.114;11.674;2023-03-01T11:14:15;102360.28;;;6.79
60731;BMP280;46580;52.114;11.674;2023-03-01T11:16:44;102363.34;;;6.66
60731;BMP280;46580;52.114;11.674;2023-03-01T11:21:44;102355.94;;;6.81
60731;BMP280;46580;52.114;11.674;2023-03-01T11:24:14;102351.50;;;6.86
60731;BMP280;46580;52.114;11.674;2023-03-01T11:26:45;102351.66;;;7.04
60731;BMP280;46580;52.114;11.674;2023-03-01T11:29:32;102354.28;;;7.25
60731;BMP280;46580;52.114;11.674;2023-03-01T11:32:02;102353.44;;;7.47
60731;BMP280;46580;52.114;11.674;2023-03-01T11:37:40;102354.13;;;7.07
60731;BMP280;46580;52.114;11.674;2023-03-01T11:40:26;102352.94;;;7.38
60731;BMP280;46580;52.114;11.674;2023-03-01T11:45:57;102347.94;;;7.56
60731;BMP280;46580;52.114;11.674;2023-03-01T11:48:57;102336.09;;;7.53
60731;BMP280;46580;52.114;11.674;2023-03-01T11:51:38;102324.81;;;7.36
60731;BMP280;46580;52.114;11.674;2023-03-01T11:54:16;102332.34;;;7.41
60731;BMP280;46580;52.114;11.674;2023-03-01T11:56:47;102323.19;;;7.76
60731;BMP280;46580;52.114;11.674;2023-03-01T12:05:11;102313.38;;;8.07
60731;BMP280;46580;52.114;11.674;2023-03-01T12:08:09;102316.75;;;8.08
60731;BMP280;46580;52.114;11.674;2023-03-01T12:10:43;102311.78;;;8.03
60731;BMP280;46580;52.114;11.674;2023-03-01T12:16:30;102311.31;;;8.15
60731;BMP280;46580;52.114;11.674;2023-03-01T12:19:13;102313.38;;;8.07
60731;BMP280;46580;52.114;11.674;2023-03-01T12:24:37;102307.66;;;8.20
60731;BMP280;46580;52.114;11.674;2023-03-01T12:27:29;102308.69;;;8.55
60731;BMP280;46580;52.114;11.674;2023-03-01T12:30:09;102309.09;;;8.65
60731;BMP280;46580;52.114;11.674;2023-03-01T12:33:03;102302.38;;;8.43
60731;BMP280;46580;52.114;11.674;2023-03-01T12:35:38;102299.16;;;8.57
60731;BMP280;46580;52.114;11.674;2023-03-01T12:38:37;102289.41;;;8.83
60731;BMP280;46580;52.114;11.674;2023-03-01T12:41:35;102285.59;;;8.73
60731;BMP280;46580;52.114;11.674;2023-03-01T12:44:30;102282.94;;;8.37
60731;BMP280;46580;52.114;11.674;2023-03-01T12:47:31;102275.84;;;8.24
60731;BMP280;46580;52.114;11.674;2023-03-01T12:50:05;102281.13;;;8.21
60731;BMP280;46580;52.114;11.674;2023-03-01T12:52:52;102267.97;;;8.29
60731;BMP280;46580;52.114;11.674;2023-03-01T12:55:28;102257.97;;;8.96
60731;BMP280;46580;52.114;11.674;2023-03-01T12:58:19;102252.47;;;9.04
60731;BMP280;46580;52.114;11.674;2023-03-01T13:01:16;102260.91;;;8.34
60731;BMP280;46580;52.114;11.674;2023-03-01T13:09:29;102240.16;;;8.75
60731;BMP280;46580;52.114;11.674;2023-03-01T13:11:57;102233.28;;;8.94
60731;BMP280;46580;52.114;11.674;2023-03-01T13:16:51;102241.78;;;8.58
60731;BMP280;46580;52.114;11.674;2023-03-01T13:19:20;102231.13;;;8.67
60731;BMP280;46580;52.114;11.674;2023-03-01T13:21:47;102236.31;;;9.02
60731;BMP280;46580;52.114;11.674;2023-03-01T13:29:51;102232.09;;;8.65
60731;BMP280;46580;52.114;11.674;2023-03-01T13:32:23;102228.44;;;8.88
60731;BMP280;46580;52.114;11.674;2023-03-01T13:35:00;102226.94;;;9.01
60731;BMP280;46580;52.114;11.674;2023-03-01T13:37:29;102226.94;;;9.01
60731;BMP280;46580;52.114;11.674;2023-03-01T13:39:57;102223.13;;;9.09
60731;BMP280;46580;52.114;11.674;2023-03-01T13:42:40;102212.91;;;8.90
60731;BMP280;46580;52.114;11.674;2023-03-01T13:47:41;102207.19;;;8.49
60731;BMP280;46580;52.114;11.674;2023-03-01T13:50:18;102207.19;;;8.29
60731;BMP280;46580;52.114;11.674;2023-03-01T13:52:48;102209.59;;;8.52
60731;BMP280;46580;52.114;11.674;2023-03-01T13:55:31;102200.38;;;8.48
60731;BMP280;46580;52.114;11.674;2023-03-01T13:58:02;102188.66;;;8.60
60731;BMP280;46580;52.114;11.674;2023-03-01T14:05:39;102188.22;;;8.33
60731;BMP280;46580;52.114;11.674;2023-03-01T14:08:19;102182.47;;;8.28
60731;BMP280;46580;52.114;11.674;2023-03-01T14:16:05;102180.97;;;8.60
60731;BMP280;46580;52.114;11.674;2023-03-01T14:18:42;102178.97;;;8.49
60731;BMP280;46580;52.114;11.674;2023-03-01T14:21:13;102176.19;;;8.53
60731;BMP280;46580;52.114;11.674;2023-03-01T14:23:40;102162.59;;;8.69
60731;BMP280;46580;52.114;11.674;2023-03-01T14:26:08;102165.25;;;8.30
60731;BMP280;46580;52.114;11.674;2023-03-01T14:28:36;102171.16;;;8.14
60731;BMP280;46580;52.114;11.674;2023-03-01T14:31:37;102167.88;;;8.11
60731;BMP280;46580;52.114;11.674;2023-03-01T14:34:05;102154.59;;;8.21
60731;BMP280;46580;52.114;11.674;2023-03-01T14:36:32;102151.19;;;8.20
60731;BMP280;46580;52.114;11.674;2023-03-01T14:38:58;102149.78;;;8.14
60731;BMP280;46580;52.114;11.674;2023-03-01T14:41:32;102143.44;;;8.22
60731;BMP280;46580;52.114;11.674;2023-03-01T14:44:00;102147.84;;;8.18
60731;BMP280;46580;52.114;11.674;2023-03-01T14:46:36;102145.56;;;8.13
60731;BMP280;46580;52.114;11.674;2023-03-01T14:49:11;102137.09;;;8.11
60731;BMP280;46580;52.114;11.674;2023-03-01T14:51:39;102136.63;;;8.21
60731;BMP280;46580;52.114;11.674;2023-03-01T14:54:21;102133.56;;;8.31
60731;BMP280;46580;52.114;11.674;2023-03-01T14:56:50;102134.69;;;8.44
60731;BMP280;46580;52.114;11.674;2023-03-01T14:59:19;102133.09;;;8.23
60731;BMP280;46580;52.114;11.674;2023-03-01T15:01:46;102131.06;;;8.12
60731;BMP280;46580;52.114;11.674;2023-03-01T15:04:13;102133.03;;;8.25
60731;BMP280;46580;52.114;11.674;2023-03-01T15:06:38;102127.78;;;8.28
60731;BMP280;46580;52.114;11.674;2023-03-01T15:09:12;102132.03;;;8.09
60731;BMP280;46580;52.114;11.674;2023-03-01T15:11:38;102133.56;;;8.13
60731;BMP280;46580;52.114;11.674;2023-03-01T15:14:27;102129.00;;;8.01
60731;BMP280;46580;52.114;11.674;2023-03-01T15:16:55;102124.66;;;8.02
60731;BMP280;46580;52.114;11.674;2023-03-01T15:19:23;102121.22;;;8.03
60731;BMP280;46580;52.114;11.674;2023-03-01T15:21:55;102119.97;;;8.11
60731;BMP280;46580;52.114;11.674;2023-03-01T15:24:24;102117.34;;;8.13
60731;BMP280;46580;52.114;11.674;2023-03-01T15:26:58;102113.72;;;8.17